createdAt,value
2022-12-14T00:02:01.973Z,9.17
2022-12-14T00:04:30.376Z,8.93
2022-12-14T00:06:58.481Z,8.80
2022-12-14T00:09:27.650Z,9.20
2022-12-14T00:11:56.066Z,9.03
2022-12-14T00:14:24.333Z,8.93
2022-12-14T00:16:52.484Z,8.53
2022-12-14T00:19:22.078Z,8.43
2022-12-14T00:21:50.577Z,8.70
2022-12-14T00:24:18.911Z,8.50
2022-12-14T00:26:47.031Z,9.53
2022-12-14T00:29:15.207Z,9.30
2022-12-14T00:31:43.358Z,8.73
2022-12-14T00:34:17.272Z,8.97
2022-12-14T00:36:47.743Z,9.00
2022-12-14T00:39:15.928Z,8.87
2022-12-14T00:41:44.483Z,9.10
2022-12-14T00:44:12.683Z,8.77
2022-12-14T00:46:40.934Z,8.77
2022-12-14T00:49:09.247Z,8.53
2022-12-14T00:51:37.440Z,8.87
2022-12-14T00:54:07.184Z,8.47
2022-12-14T00:56:35.546Z,8.93
2022-12-14T00:59:03.718Z,9.27
2022-12-14T01:01:32.074Z,8.33
2022-12-14T01:04:14.260Z,9.13
2022-12-14T01:06:42.566Z,9.43
2022-12-14T01:09:12.798Z,9.23
2022-12-14T01:11:41.267Z,9.27
2022-12-14T01:14:09.959Z,8.60
2022-12-14T01:16:38.133Z,8.33
2022-12-14T01:19:06.472Z,8.63
2022-12-14T01:21:35.274Z,8.77
2022-12-14T01:24:04.967Z,8.90
2022-12-14T01:26:39.164Z,9.07
2022-12-14T01:29:08.533Z,9.90
2022-12-14T01:31:39.256Z,9.47
2022-12-14T01:34:08.364Z,9.00
2022-12-14T01:36:38.042Z,9.10
2022-12-14T01:39:10.878Z,9.30
2022-12-14T01:41:42.542Z,8.83
2022-12-14T01:45:02.692Z,9.07
2022-12-14T01:47:37.847Z,8.90
2022-12-14T01:50:12.090Z,8.93
2022-12-14T01:52:43.649Z,8.33
2022-12-14T01:55:17.756Z,8.70
2022-12-14T01:57:50.897Z,9.40
2022-12-14T02:00:19.445Z,8.40
2022-12-14T02:03:00.453Z,8.97
2022-12-14T02:05:30.941Z,9.10
2022-12-14T02:07:59.338Z,8.23
2022-12-14T02:10:31.469Z,8.90
2022-12-14T02:13:05.445Z,8.37
2022-12-14T02:15:34.939Z,9.20
2022-12-14T02:18:07.358Z,9.67
2022-12-14T02:20:45.735Z,9.00
2022-12-14T02:23:36.892Z,9.47
2022-12-14T02:26:36.018Z,9.13
2022-12-14T02:29:33.762Z,9.80
2022-12-14T02:32:21.952Z,9.10
2022-12-14T02:34:59.473Z,9.27
2022-12-14T02:37:36.209Z,8.60
2022-12-14T02:40:15.324Z,9.57
2022-12-14T02:42:52.158Z,9.17
2022-12-14T02:45:27.153Z,9.30
2022-12-14T02:48:00.552Z,8.63
2022-12-14T02:50:34.820Z,9.10
2022-12-14T02:53:13.887Z,9.27
2022-12-14T02:55:46.572Z,9.53
2022-12-14T02:58:20.666Z,9.20
2022-12-14T03:00:50.984Z,9.27
2022-12-14T03:03:19.379Z,8.73
2022-12-14T03:05:56.929Z,9.00
2022-12-14T03:08:27.910Z,8.73
2022-12-14T03:10:59.974Z,8.07
2022-12-14T03:13:32.581Z,8.03
2022-12-14T03:16:08.555Z,8.50
2022-12-14T03:18:40.661Z,7.73
2022-12-14T03:21:13.086Z,7.50
2022-12-14T03:23:44.394Z,8.17
2022-12-14T03:26:17.349Z,8.47
2022-12-14T03:28:49.276Z,8.27
2022-12-14T03:31:23.797Z,8.73
2022-12-14T03:33:55.557Z,8.70
2022-12-14T03:36:43.842Z,8.30
2022-12-14T03:39:16.419Z,9.33
2022-12-14T03:41:51.345Z,8.60
2022-12-14T03:44:31.131Z,8.20
2022-12-14T03:47:12.589Z,7.70
2022-12-14T03:49:53.029Z,8.27
2022-12-14T03:52:27.960Z,8.50
2022-12-14T03:55:06.328Z,9.07
2022-12-14T03:57:48.329Z,8.80
2022-12-14T04:00:20.087Z,8.60
2022-12-14T04:02:56.900Z,8.93
2022-12-14T04:05:35.625Z,9.70
2022-12-14T04:08:08.329Z,8.13
2022-12-14T04:10:58.665Z,8.17
2022-12-14T04:13:54.418Z,8.13
2022-12-14T04:16:45.918Z,9.40
2022-12-14T04:19:21.187Z,9.30
2022-12-14T04:21:53.608Z,8.63
2022-12-14T04:24:52.216Z,9.27
2022-12-14T04:27:32.527Z,9.27
2022-12-14T04:30:01.989Z,11.00
2022-12-14T04:32:36.902Z,11.77
2022-12-14T04:35:13.195Z,12.13
2022-12-14T04:37:44.255Z,11.63
2022-12-14T04:40:15.928Z,10.37
2022-12-14T04:42:49.470Z,10.97
2022-12-14T04:45:23.458Z,9.67
2022-12-14T04:48:00.531Z,11.27
2022-12-14T04:50:35.993Z,9.93
2022-12-14T04:53:11.982Z,12.17
2022-12-14T04:55:47.739Z,13.40
2022-12-14T04:58:23.325Z,12.03
2022-12-14T05:01:10.454Z,11.67
2022-12-14T05:03:50.183Z,11.80
2022-12-14T05:06:27.960Z,10.77
2022-12-14T05:09:14.258Z,10.80
2022-12-14T05:11:55.140Z,11.27
2022-12-14T05:14:29.766Z,10.90
2022-12-14T05:17:02.313Z,11.27
2022-12-14T05:19:33.332Z,10.77
2022-12-14T05:22:07.305Z,10.10
2022-12-14T05:24:35.629Z,10.87
2022-12-14T05:27:03.920Z,10.50
2022-12-14T05:29:32.046Z,11.13
2022-12-14T05:32:01.117Z,10.53
2022-12-14T05:34:29.461Z,11.57
2022-12-14T05:36:58.252Z,11.40
2022-12-14T05:39:27.857Z,11.43
2022-12-14T05:41:56.125Z,11.37
2022-12-14T05:44:24.334Z,11.40
2022-12-14T05:46:52.514Z,11.50
2022-12-14T05:49:20.742Z,11.73
2022-12-14T05:51:49.983Z,11.93
2022-12-14T05:54:18.294Z,10.50
2022-12-14T05:56:47.805Z,11.33
2022-12-14T05:59:17.223Z,15.90
2022-12-14T06:01:50.691Z,13.00
2022-12-14T06:04:20.120Z,10.60
2022-12-14T06:06:48.306Z,11.70
2022-12-14T06:09:17.635Z,11.73
2022-12-14T06:11:48.324Z,11.77
2022-12-14T06:14:16.737Z,11.77
2022-12-14T06:16:46.786Z,12.53
2022-12-14T06:19:16.089Z,11.17
2022-12-14T06:21:45.208Z,11.13
2022-12-14T06:24:14.910Z,12.93
2022-12-14T06:26:43.051Z,11.70
2022-12-14T06:29:16.995Z,10.80
2022-12-14T06:31:45.407Z,11.83
2022-12-14T06:34:20.392Z,11.00
2022-12-14T06:36:51.656Z,12.33
2022-12-14T06:39:19.790Z,12.50
2022-12-14T06:41:50.918Z,12.17
2022-12-14T06:44:20.715Z,12.50
2022-12-14T06:46:48.820Z,11.50
2022-12-14T06:49:17.272Z,12.83
2022-12-14T06:51:46.154Z,11.37
2022-12-14T06:54:15.920Z,12.07
2022-12-14T06:56:45.469Z,11.00
2022-12-14T06:59:14.005Z,11.93
2022-12-14T07:01:44.131Z,15.10
2022-12-14T07:04:12.377Z,13.87
2022-12-14T07:06:42.314Z,13.27
2022-12-14T07:09:14.055Z,12.63
2022-12-14T07:11:42.603Z,11.57
2022-12-14T07:14:15.914Z,12.37
2022-12-14T07:16:48.560Z,10.47
2022-12-14T07:19:17.383Z,12.03
2022-12-14T07:21:45.578Z,12.10
2022-12-14T07:24:13.704Z,12.43
2022-12-14T07:26:41.827Z,11.40
2022-12-14T07:29:12.128Z,11.23
2022-12-14T07:31:40.438Z,11.57
2022-12-14T07:34:14.147Z,12.27
2022-12-14T07:36:43.361Z,12.27
2022-12-14T07:39:13.864Z,12.43
2022-12-14T07:41:42.407Z,10.57
2022-12-14T07:44:10.616Z,12.77
2022-12-14T07:46:38.837Z,12.63
2022-12-14T07:49:08.258Z,11.37
2022-12-14T07:51:41.273Z,11.83
2022-12-14T07:54:09.802Z,11.43
2022-12-14T07:56:40.890Z,12.83
2022-12-14T07:59:12.446Z,12.30
2022-12-14T08:01:40.783Z,12.00
2022-12-14T08:04:11.062Z,12.53
2022-12-14T08:06:41.268Z,11.50
2022-12-14T08:09:11.790Z,11.30
2022-12-14T08:11:40.703Z,10.60
2022-12-14T08:14:13.615Z,11.67
2022-12-14T08:16:41.796Z,12.20
2022-12-14T08:19:11.279Z,10.93
2022-12-14T08:21:41.400Z,10.57
2022-12-14T08:24:11.754Z,10.53
2022-12-14T08:26:40.275Z,10.23
2022-12-14T08:29:08.499Z,10.87
2022-12-14T08:31:36.805Z,10.33
2022-12-14T08:34:05.612Z,9.97
2022-12-14T08:36:35.760Z,10.50
2022-12-14T08:39:07.697Z,10.77
2022-12-14T08:41:36.339Z,10.27
2022-12-14T08:44:05.643Z,10.20
2022-12-14T08:46:35.938Z,9.73
2022-12-14T08:49:04.587Z,10.57
2022-12-14T08:51:32.852Z,10.40
2022-12-14T08:54:01.105Z,10.63
2022-12-14T08:56:31.024Z,11.13
2022-12-14T08:58:59.217Z,11.60
2022-12-14T09:01:33.310Z,10.57
2022-12-14T09:04:07.999Z,10.57
2022-12-14T09:06:38.520Z,10.87
2022-12-14T09:09:13.604Z,10.00
2022-12-14T09:11:45.241Z,11.03
2022-12-14T09:14:13.599Z,11.60
2022-12-14T09:16:42.335Z,11.63
2022-12-14T09:19:10.610Z,11.33
2022-12-14T09:21:39.891Z,11.97
2022-12-14T09:24:08.317Z,12.00
2022-12-14T09:26:36.827Z,12.53
2022-12-14T09:29:06.465Z,11.63
2022-12-14T09:31:34.735Z,12.90
2022-12-14T09:34:04.051Z,11.80
2022-12-14T09:36:32.572Z,12.13
2022-12-14T09:39:01.085Z,11.33
2022-12-14T09:41:41.228Z,11.70
2022-12-14T09:44:19.083Z,11.10
2022-12-14T09:46:57.420Z,11.67
2022-12-14T09:49:29.797Z,10.47
2022-12-14T09:52:01.398Z,11.07
2022-12-14T09:54:34.230Z,11.23
2022-12-14T09:57:08.946Z,12.97
2022-12-14T09:59:38.732Z,11.80
2022-12-14T10:02:32.958Z,11.67
2022-12-14T10:05:21.361Z,11.87
2022-12-14T10:08:00.085Z,11.30
2022-12-14T10:10:38.350Z,11.83
2022-12-14T10:13:21.095Z,11.07
2022-12-14T10:15:58.333Z,11.20
2022-12-14T10:19:03.222Z,12.67
2022-12-14T10:21:44.158Z,12.80
2022-12-14T10:24:18.973Z,10.83
2022-12-14T10:26:52.785Z,10.10
2022-12-14T10:29:32.444Z,12.50
2022-12-14T10:32:14.124Z,11.67
2022-12-14T10:34:43.961Z,11.57
2022-12-14T10:37:25.701Z,12.23
2022-12-14T10:40:12.435Z,12.20
2022-12-14T10:42:49.692Z,12.77
2022-12-14T10:45:41.089Z,11.53
2022-12-14T10:48:32.166Z,12.40
2022-12-14T10:51:03.974Z,12.27
2022-12-14T10:53:40.770Z,13.33
2022-12-14T10:56:17.508Z,12.10
2022-12-14T10:58:46.332Z,13.00
2022-12-14T11:01:16.157Z,13.50
2022-12-14T11:03:50.634Z,12.73
2022-12-14T11:06:20.844Z,12.40
2022-12-14T11:08:50.730Z,12.40
2022-12-14T11:11:22.305Z,12.93
2022-12-14T11:13:52.807Z,12.57
2022-12-14T11:16:33.882Z,13.00
2022-12-14T11:19:07.178Z,12.30
2022-12-14T11:21:37.949Z,13.27
2022-12-14T11:24:07.849Z,12.57
2022-12-14T11:26:40.687Z,13.07
2022-12-14T11:29:20.268Z,13.37
2022-12-14T11:31:52.564Z,13.57
2022-12-14T11:34:29.499Z,13.27
2022-12-14T11:36:57.792Z,13.57
2022-12-14T11:39:26.565Z,12.73
2022-12-14T11:42:02.795Z,13.60
2022-12-14T11:44:36.201Z,12.77
2022-12-14T11:47:08.349Z,12.93
2022-12-14T11:49:45.600Z,14.23
2022-12-14T11:52:15.530Z,12.63
2022-12-14T11:54:49.556Z,12.93
2022-12-14T11:57:26.203Z,13.50
2022-12-14T11:59:58.912Z,11.83
2022-12-14T12:02:31.547Z,12.27
2022-12-14T12:05:08.329Z,12.60
2022-12-14T12:07:38.377Z,12.43
2022-12-14T12:10:20.899Z,12.63
2022-12-14T12:12:54.229Z,12.37
2022-12-14T12:15:26.125Z,11.97
2022-12-14T12:18:00.129Z,12.57
2022-12-14T12:20:35.617Z,12.63
2022-12-14T12:23:11.458Z,12.63
2022-12-14T12:25:41.274Z,12.33
2022-12-14T12:28:17.346Z,12.43
2022-12-14T12:30:50.314Z,13.13
2022-12-14T12:33:33.576Z,12.73
2022-12-14T12:36:06.488Z,12.40
2022-12-14T12:38:49.974Z,12.87
2022-12-14T12:41:34.339Z,13.03
2022-12-14T12:44:13.236Z,11.17
2022-12-14T12:47:15.257Z,11.83
2022-12-14T12:49:38.715Z,12.37
2022-12-14T12:52:20.520Z,13.27
2022-12-14T12:54:56.856Z,12.50
2022-12-14T12:57:28.855Z,11.33
2022-12-14T12:59:59.296Z,12.60
2022-12-14T13:02:32.643Z,12.60
2022-12-14T13:05:29.160Z,12.37
2022-12-14T13:07:58.589Z,11.87
2022-12-14T13:10:30.897Z,11.93
2022-12-14T13:13:04.390Z,12.33
2022-12-14T13:15:36.201Z,12.27
2022-12-14T13:18:40.846Z,12.30
2022-12-14T13:21:11.445Z,12.83
2022-12-14T13:23:45.517Z,12.03
2022-12-14T13:29:45.223Z,12.90
2022-12-14T13:32:37.015Z,11.57
2022-12-14T13:35:17.926Z,11.23
2022-12-14T13:38:15.821Z,11.93
2022-12-14T13:41:21.232Z,11.20
2022-12-14T13:44:04.639Z,12.07
2022-12-14T13:46:33.110Z,12.57
2022-12-14T13:49:04.175Z,13.37
2022-12-14T13:51:35.706Z,11.93
2022-12-14T13:54:07.700Z,12.17
2022-12-14T13:56:40.395Z,12.80
2022-12-14T13:59:28.333Z,13.27
2022-12-14T14:01:59.877Z,12.97
2022-12-14T14:04:29.778Z,13.93
2022-12-14T14:07:21.981Z,14.27
2022-12-14T14:10:00.573Z,13.90
2022-12-14T14:12:39.828Z,13.17
2022-12-14T14:16:19.037Z,12.73
2022-12-14T14:18:47.097Z,14.07
2022-12-14T14:21:58.894Z,14.30
2022-12-14T14:24:28.619Z,13.90
2022-12-14T14:27:09.745Z,13.57
2022-12-14T14:29:46.092Z,13.47
2022-12-14T14:32:33.666Z,14.70
2022-12-14T14:35:04.116Z,13.97
2022-12-14T14:37:35.423Z,14.07
2022-12-14T14:40:23.948Z,12.50
2022-12-14T14:43:05.612Z,13.60
2022-12-14T14:45:49.077Z,11.93
2022-12-14T14:48:32.415Z,12.63
2022-12-14T14:51:07.791Z,14.10
2022-12-14T14:53:37.019Z,14.40
2022-12-14T14:56:13.607Z,13.43
2022-12-14T14:58:43.341Z,13.27
2022-12-14T15:01:25.152Z,13.97
2022-12-14T15:03:57.672Z,13.60
2022-12-14T15:06:29.428Z,13.47
2022-12-14T15:09:01.800Z,14.40
2022-12-14T15:11:37.581Z,14.37
2022-12-14T15:14:18.961Z,14.10
2022-12-14T15:16:49.238Z,15.37
2022-12-14T15:19:26.431Z,13.83
2022-12-14T15:21:57.457Z,14.30
2022-12-14T15:24:26.763Z,15.10
2022-12-14T15:26:55.380Z,13.23
2022-12-14T15:29:28.034Z,14.30
2022-12-14T15:32:00.794Z,14.03
2022-12-14T15:34:29.420Z,12.33
2022-12-14T15:36:58.031Z,13.67
2022-12-14T15:39:37.308Z,13.90
2022-12-14T15:42:12.214Z,13.70
2022-12-14T15:44:43.944Z,14.90
2022-12-14T15:47:28.819Z,15.93
2022-12-14T15:50:14.723Z,16.27
2022-12-14T15:52:45.397Z,13.87
2022-12-14T15:55:27.866Z,15.50
2022-12-14T15:57:56.483Z,15.33
2022-12-14T16:00:25.031Z,15.97
2022-12-14T16:02:55.071Z,17.90
2022-12-14T16:05:24.034Z,16.73
2022-12-14T16:07:56.273Z,17.73
2022-12-14T16:10:27.351Z,17.83
2022-12-14T16:12:59.780Z,17.47
2022-12-14T16:15:30.637Z,16.40
2022-12-14T16:18:03.057Z,19.03
2022-12-14T16:20:33.555Z,18.23
2022-12-14T16:23:06.087Z,20.73
2022-12-14T16:25:37.193Z,18.93
2022-12-14T16:28:26.399Z,17.90
2022-12-14T16:30:57.819Z,20.30
2022-12-14T16:33:29.791Z,20.93
2022-12-14T16:36:04.702Z,20.70
2022-12-14T16:38:37.437Z,20.20
2022-12-14T16:41:06.898Z,19.80
2022-12-14T16:43:38.141Z,17.70
2022-12-14T16:46:22.022Z,17.77
2022-12-14T16:49:30.449Z,16.90
2022-12-14T16:52:09.091Z,17.70
2022-12-14T16:54:39.584Z,19.10
2022-12-14T16:57:17.870Z,19.30
2022-12-14T16:59:48.539Z,18.50
2022-12-14T17:02:31.963Z,18.47
2022-12-14T17:05:05.591Z,18.47
2022-12-14T17:07:38.609Z,19.30
2022-12-14T17:10:16.268Z,19.20
2022-12-14T17:12:45.571Z,18.20
2022-12-14T17:15:16.174Z,18.97
2022-12-14T17:17:45.224Z,19.47
2022-12-14T17:20:24.886Z,19.37
2022-12-14T17:22:56.867Z,20.63
2022-12-14T17:25:25.764Z,21.13
2022-12-14T17:27:53.935Z,21.20
2022-12-14T17:30:24.229Z,20.93
2022-12-14T17:32:54.788Z,20.23
2022-12-14T17:35:28.917Z,21.40
2022-12-14T17:38:01.683Z,19.97
2022-12-14T17:40:36.311Z,20.20
2022-12-14T17:43:06.817Z,19.17
2022-12-14T17:45:36.591Z,19.83
2022-12-14T17:48:05.922Z,21.70
2022-12-14T17:50:36.641Z,22.10
2022-12-14T17:53:07.321Z,21.23
2022-12-14T17:55:36.537Z,21.33
2022-12-14T17:58:06.426Z,20.10
2022-12-14T18:00:49.319Z,22.23
2022-12-14T18:03:21.147Z,21.97
2022-12-14T18:05:52.474Z,20.07
2022-12-14T18:08:24.960Z,21.07
2022-12-14T18:10:57.934Z,20.80
2022-12-14T18:13:32.133Z,20.33
2022-12-14T18:16:01.774Z,20.90
2022-12-14T18:18:31.743Z,20.13
2022-12-14T18:21:08.102Z,21.83
2022-12-14T18:23:37.559Z,22.03
2022-12-14T18:26:09.113Z,21.60
2022-12-14T18:28:42.789Z,20.10
2022-12-14T18:31:21.782Z,20.83
2022-12-14T18:33:51.638Z,20.13
2022-12-14T18:36:25.970Z,20.33
2022-12-14T18:38:56.127Z,19.90
2022-12-14T18:41:28.840Z,20.10
2022-12-14T18:43:59.215Z,20.57
2022-12-14T18:46:30.458Z,19.40
2022-12-14T18:49:00.490Z,19.57
2022-12-14T18:51:32.129Z,20.70
2022-12-14T18:54:03.529Z,19.70
2022-12-14T18:56:34.760Z,22.30
2022-12-14T18:59:05.416Z,20.07
2022-12-14T19:01:35.971Z,20.70
2022-12-14T19:04:11.592Z,20.30
2022-12-14T19:06:45.437Z,20.53
2022-12-14T19:09:20.734Z,18.73
2022-12-14T19:11:54.584Z,19.53
2022-12-14T19:14:24.416Z,19.77
2022-12-14T19:16:57.829Z,19.13
2022-12-14T19:19:35.656Z,20.17
2022-12-14T19:22:13.434Z,21.23
2022-12-14T19:24:47.791Z,19.33
2022-12-14T19:27:50.922Z,22.40
2022-12-14T19:30:20.735Z,21.97
2022-12-14T19:32:52.410Z,19.60
2022-12-14T19:35:24.617Z,19.70
2022-12-14T19:38:03.412Z,18.47
2022-12-14T19:40:34.213Z,19.00
2022-12-14T19:43:04.650Z,19.00
2022-12-14T19:45:35.693Z,18.73
2022-12-14T19:48:11.344Z,19.80
2022-12-14T19:50:44.271Z,21.80
2022-12-14T19:53:23.742Z,22.53
2022-12-14T19:55:59.391Z,21.00
2022-12-14T19:58:30.351Z,20.33
2022-12-14T20:01:01.245Z,21.13
2022-12-14T20:03:35.296Z,22.00
2022-12-14T20:06:09.937Z,22.30
2022-12-14T20:08:44.428Z,22.10
2022-12-14T20:11:22.374Z,20.60
2022-12-14T20:13:57.433Z,18.70
2022-12-14T20:16:30.556Z,19.67
2022-12-14T20:19:01.216Z,22.20
2022-12-14T20:21:31.258Z,21.90
2022-12-14T20:24:04.814Z,21.50
2022-12-14T20:26:39.788Z,20.93
2022-12-14T20:29:12.902Z,22.03
2022-12-14T20:31:45.776Z,21.87
2022-12-14T20:34:17.226Z,20.17
2022-12-14T20:36:47.823Z,20.30
2022-12-14T20:39:21.823Z,19.53
2022-12-14T20:41:56.081Z,21.00
2022-12-14T20:44:26.238Z,19.97
2022-12-14T20:46:56.595Z,20.67
2022-12-14T20:49:34.179Z,19.63
2022-12-14T20:52:05.314Z,19.37
2022-12-14T20:54:37.414Z,19.30
2022-12-14T20:57:09.223Z,19.40
2022-12-14T20:59:42.081Z,20.23
2022-12-14T21:02:20.529Z,20.53
2022-12-14T21:04:50.107Z,24.03
2022-12-14T21:07:25.725Z,21.93
2022-12-14T21:09:56.684Z,19.13
2022-12-14T21:12:26.202Z,20.30
2022-12-14T21:14:56.633Z,20.73
2022-12-14T21:17:27.691Z,19.80
2022-12-14T21:19:57.632Z,20.43
2022-12-14T21:22:28.945Z,19.07
2022-12-14T21:25:04.699Z,21.17
2022-12-14T21:27:35.073Z,20.33
2022-12-14T21:30:04.199Z,28.60
2022-12-14T21:32:33.423Z,24.90
2022-12-14T21:35:01.668Z,21.67
2022-12-14T21:37:30.036Z,22.33
2022-12-14T21:40:02.988Z,22.97
2022-12-14T21:42:30.399Z,20.53
2022-12-14T21:44:58.688Z,19.70
2022-12-14T21:47:29.233Z,23.63
2022-12-14T21:49:57.964Z,23.63
2022-12-14T21:52:28.501Z,23.07
2022-12-14T21:54:58.686Z,20.43
2022-12-14T21:57:50.264Z,21.07
2022-12-14T22:00:20.115Z,21.10
2022-12-14T22:02:48.515Z,21.13
2022-12-14T22:05:16.808Z,23.33
2022-12-14T22:07:45.096Z,22.37
2022-12-14T22:10:13.316Z,22.27
2022-12-14T22:12:42.960Z,21.80
2022-12-14T22:15:11.981Z,22.40
2022-12-14T22:17:40.240Z,25.23
2022-12-14T22:20:09.596Z,24.47
2022-12-14T22:22:37.939Z,24.10
2022-12-14T22:25:06.883Z,25.13
2022-12-14T22:27:35.015Z,23.87
2022-12-14T22:30:06.178Z,23.37
2022-12-14T22:32:34.319Z,24.60
2022-12-14T22:35:02.981Z,31.27
2022-12-14T22:37:31.053Z,34.70
2022-12-14T22:39:59.131Z,32.40
2022-12-14T22:42:27.322Z,31.03
2022-12-14T22:44:55.621Z,28.47
2022-12-14T22:47:25.083Z,28.33
2022-12-14T22:49:53.155Z,30.53
2022-12-14T22:52:24.711Z,27.50
2022-12-14T22:54:54.206Z,28.37
2022-12-14T22:57:23.045Z,27.10
2022-12-14T22:59:55.530Z,25.53
2022-12-14T23:02:25.849Z,25.87
2022-12-14T23:04:54.131Z,24.13
2022-12-14T23:07:22.322Z,22.87
2022-12-14T23:10:08.075Z,24.47
2022-12-14T23:12:53.447Z,23.43
2022-12-14T23:15:38.649Z,21.60
2022-12-14T23:18:26.428Z,23.47
2022-12-14T23:21:12.871Z,22.13
2022-12-14T23:24:00.740Z,23.13
2022-12-14T23:26:46.599Z,23.53
2022-12-14T23:29:32.328Z,21.00
2022-12-14T23:32:18.204Z,22.33
2022-12-14T23:35:05.325Z,22.33
2022-12-14T23:37:50.598Z,22.53
2022-12-14T23:40:36.502Z,24.10
2022-12-14T23:43:26.986Z,24.93
2022-12-14T23:46:12.856Z,27.27
2022-12-14T23:48:58.441Z,24.83
2022-12-14T23:51:45.403Z,26.50
2022-12-14T23:54:31.234Z,26.67
2022-12-14T23:57:17.154Z,26.53
